Rosslare, Ireland
Current Conditions -  °F | °C
As of 8:30 PM on Friday 28 Nov 2014 (Local Time) from EIWF Reporting Station
Broken Clouds Broken Clouds  
Wind Chill: 50°   Ceiling: 1600
Heat Index: 50°   Visibility: 6mi
Dew Point: 48°   Wind: 10mph
Humidity: 94%   Direction: 80°E
Pressure: 29.68"   Gusts: NA
Location:  52.27°N, 6.39°W
Report Text: EIWF 282030Z 08009KT 9000 BKN016 10/09 Q1005
Loading
Personal Weather Stations






























Interactive Weather Map New forecast layout! Learn more

10-Day Weather Forecast

Advertisements
Track Severe Weather on mobile